createdAt,value
2023-03-25T00:00:19.368Z,17.05
2023-03-25T00:02:52.692Z,16.99
2023-03-25T00:05:21.979Z,17.12
2023-03-25T00:07:53.007Z,17.07
2023-03-25T00:10:20.962Z,16.96
2023-03-25T00:12:48.759Z,16.99
2023-03-25T00:15:16.683Z,16.96
2023-03-25T00:17:44.973Z,16.94
2023-03-25T00:20:14.336Z,16.99
2023-03-25T00:22:44.905Z,16.98
2023-03-25T00:25:18.030Z,16.85
2023-03-25T00:27:47.250Z,16.87
2023-03-25T00:30:16.355Z,16.81
2023-03-25T00:32:53.371Z,16.77
2023-03-25T00:35:22.538Z,16.71
2023-03-25T00:38:00.632Z,16.66
2023-03-25T00:40:35.177Z,16.63
2023-03-25T00:43:04.590Z,16.65
2023-03-25T00:45:32.841Z,16.55
2023-03-25T00:48:00.937Z,16.48
2023-03-25T00:50:28.742Z,16.42
2023-03-25T00:52:56.572Z,16.44
2023-03-25T00:55:24.476Z,16.35
2023-03-25T00:57:52.299Z,16.29
2023-03-25T01:00:20.607Z,16.36
2023-03-25T01:02:54.358Z,16.24
2023-03-25T01:05:22.370Z,16.22
2023-03-25T01:07:52.116Z,16.19
2023-03-25T01:10:20.117Z,16.22
2023-03-25T01:12:48.566Z,16.15
2023-03-25T01:15:16.562Z,16.10
2023-03-25T01:17:44.566Z,16.01
2023-03-25T01:20:12.462Z,16.09
2023-03-25T01:22:40.530Z,16.06
2023-03-25T01:25:08.751Z,16.04
2023-03-25T01:27:36.494Z,16.05
2023-03-25T01:30:04.755Z,16.00
2023-03-25T01:32:32.599Z,15.79
2023-03-25T01:35:00.402Z,15.78
2023-03-25T01:37:29.669Z,15.69
2023-03-25T01:39:57.512Z,15.69
2023-03-25T01:42:25.424Z,15.76
2023-03-25T01:44:53.245Z,15.67
2023-03-25T01:47:21.159Z,15.70
2023-03-25T01:49:50.605Z,15.66
2023-03-25T01:52:25.937Z,15.65
2023-03-25T01:54:55.314Z,15.69
2023-03-25T01:57:26.075Z,15.84
2023-03-25T01:59:55.863Z,15.80
2023-03-25T02:02:36.858Z,15.74
2023-03-25T02:05:11.242Z,15.76
2023-03-25T02:07:43.182Z,15.61
2023-03-25T02:10:12.968Z,15.58
2023-03-25T02:12:41.806Z,15.59
2023-03-25T02:15:11.301Z,15.52
2023-03-25T02:17:57.213Z,15.55
2023-03-25T02:20:43.439Z,15.43
2023-03-25T02:23:42.616Z,15.48
2023-03-25T02:26:37.160Z,15.50
2023-03-25T02:29:13.890Z,15.44
2023-03-25T02:31:48.512Z,15.52
2023-03-25T02:34:49.088Z,15.40
2023-03-25T02:38:00.343Z,15.25
2023-03-25T02:40:41.140Z,15.35
2023-03-25T02:43:31.048Z,15.37
2023-03-25T02:46:04.535Z,15.31
2023-03-25T02:48:43.169Z,15.22
2023-03-25T02:51:21.101Z,15.23
2023-03-25T02:53:51.541Z,15.28
2023-03-25T02:56:23.090Z,15.25
2023-03-25T02:58:55.882Z,15.21
2023-03-25T03:01:27.073Z,15.18
2023-03-25T03:03:57.253Z,15.05
2023-03-25T03:06:25.696Z,15.13
2023-03-25T03:09:37.985Z,15.04
2023-03-25T03:12:36.574Z,15.02
2023-03-25T03:15:07.442Z,15.02
2023-03-25T03:18:00.888Z,15.00
2023-03-25T03:20:44.515Z,14.96
2023-03-25T03:23:24.653Z,14.91
2023-03-25T03:26:00.187Z,14.81
2023-03-25T03:28:35.200Z,14.89
2023-03-25T03:31:48.732Z,14.69
2023-03-25T03:34:43.292Z,14.76
2023-03-25T03:37:37.761Z,14.73
2023-03-25T03:40:10.498Z,14.59
2023-03-25T03:42:44.585Z,14.61
2023-03-25T03:45:21.236Z,14.58
2023-03-25T03:47:54.640Z,14.69
2023-03-25T03:50:32.710Z,14.70
2023-03-25T03:53:09.778Z,14.74
2023-03-25T03:56:25.103Z,14.66
2023-03-25T03:58:59.693Z,14.64
2023-03-25T04:01:35.025Z,14.66
2023-03-25T04:04:11.069Z,14.58
2023-03-25T04:06:51.157Z,14.55
2023-03-25T04:09:34.846Z,14.59
2023-03-25T04:12:06.004Z,14.64
2023-03-25T04:14:33.996Z,14.82
2023-03-25T04:17:01.765Z,14.70
2023-03-25T04:19:29.547Z,14.60
2023-03-25T04:21:57.368Z,14.64
2023-03-25T04:24:25.304Z,14.71
2023-03-25T04:26:53.321Z,14.76
2023-03-25T04:29:21.149Z,14.78
2023-03-25T04:31:50.791Z,14.76
2023-03-25T04:34:20.714Z,14.77
2023-03-25T04:36:51.397Z,14.78
2023-03-25T04:39:22.724Z,14.72
2023-03-25T04:41:51.160Z,14.70
2023-03-25T04:44:19.062Z,14.64
2023-03-25T04:46:48.005Z,14.64
2023-03-25T04:49:21.450Z,14.61
2023-03-25T04:51:51.845Z,14.63
2023-03-25T04:54:21.233Z,14.53
2023-03-25T04:56:50.040Z,14.51
2023-03-25T04:59:24.476Z,14.47
2023-03-25T05:01:53.179Z,14.40
2023-03-25T05:04:21.767Z,14.36
2023-03-25T05:06:51.465Z,14.32
2023-03-25T05:09:24.274Z,14.27
2023-03-25T05:11:53.635Z,14.28
2023-03-25T05:14:22.324Z,14.28
2023-03-25T05:16:50.648Z,14.30
2023-03-25T05:19:19.256Z,14.33
2023-03-25T05:21:47.270Z,14.29
2023-03-25T05:24:15.126Z,14.34
2023-03-25T05:26:43.366Z,14.24
2023-03-25T05:29:14.395Z,14.29
2023-03-25T05:31:45.792Z,14.39
2023-03-25T05:34:17.502Z,14.40
2023-03-25T05:36:46.027Z,14.39
2023-03-25T05:39:14.079Z,14.44
2023-03-25T05:41:42.471Z,14.33
2023-03-25T05:44:14.908Z,14.29
2023-03-25T05:46:42.964Z,14.32
2023-03-25T05:49:10.864Z,14.36
2023-03-25T05:51:38.794Z,14.40
2023-03-25T05:54:11.750Z,14.42
2023-03-25T05:56:40.418Z,14.50
2023-03-25T05:59:09.217Z,14.44
2023-03-25T06:01:38.075Z,14.51
2023-03-25T06:04:10.490Z,14.55
2023-03-25T06:06:40.356Z,14.61
2023-03-25T06:09:08.573Z,14.67
2023-03-25T06:11:47.101Z,14.81
2023-03-25T06:14:15.039Z,14.95
2023-03-25T06:16:44.351Z,14.99
2023-03-25T06:19:12.211Z,14.94
2023-03-25T06:21:40.251Z,15.03
2023-03-25T06:24:08.637Z,15.08
2023-03-25T06:26:37.352Z,15.08
2023-03-25T06:29:05.312Z,15.19
2023-03-25T06:31:34.197Z,15.23
2023-03-25T06:34:03.069Z,15.35
2023-03-25T06:36:31.748Z,15.36
2023-03-25T06:38:59.684Z,15.33
2023-03-25T06:41:28.388Z,15.46
2023-03-25T06:44:24.973Z,15.56
2023-03-25T06:47:31.488Z,15.58
2023-03-25T06:49:59.632Z,15.59
2023-03-25T06:52:27.596Z,15.70
2023-03-25T06:54:55.796Z,15.73
2023-03-25T06:57:23.823Z,15.78
2023-03-25T06:59:51.715Z,15.75
2023-03-25T07:02:19.636Z,15.79
2023-03-25T07:04:47.568Z,15.92
2023-03-25T07:07:15.515Z,16.01
2023-03-25T07:09:43.376Z,15.95
2023-03-25T07:12:11.274Z,15.99
2023-03-25T07:14:39.198Z,16.01
2023-03-25T07:17:07.200Z,15.94
2023-03-25T07:19:35.074Z,16.21
2023-03-25T07:22:02.915Z,16.18
2023-03-25T07:24:30.828Z,16.10
2023-03-25T07:26:58.734Z,16.22
2023-03-25T07:29:28.816Z,16.22
2023-03-25T07:31:56.781Z,16.29
2023-03-25T07:34:25.106Z,16.29
2023-03-25T07:36:53.012Z,16.37
2023-03-25T07:39:22.115Z,16.46
2023-03-25T07:41:49.978Z,16.61
2023-03-25T07:44:29.306Z,16.83
2023-03-25T07:46:57.308Z,16.96
2023-03-25T07:49:25.364Z,16.99
2023-03-25T07:51:53.303Z,16.91
2023-03-25T07:54:22.932Z,16.98
2023-03-25T07:56:53.039Z,16.85
2023-03-25T07:59:20.999Z,16.93
2023-03-25T08:01:49.076Z,17.12
2023-03-25T08:04:17.076Z,17.10
2023-03-25T08:06:44.980Z,17.14
2023-03-25T08:09:13.072Z,17.26
2023-03-25T08:11:41.078Z,17.29
2023-03-25T08:14:09.392Z,17.22
2023-03-25T08:16:37.480Z,17.24
2023-03-25T08:19:05.531Z,17.25
2023-03-25T08:21:33.476Z,17.30
2023-03-25T08:24:05.001Z,17.54
2023-03-25T08:26:34.579Z,17.63
2023-03-25T08:29:02.987Z,17.83
2023-03-25T08:31:32.883Z,17.67
2023-03-25T08:34:02.524Z,17.61
2023-03-25T08:36:30.707Z,17.76
2023-03-25T08:38:58.607Z,17.87
2023-03-25T08:41:26.906Z,17.86
2023-03-25T08:43:54.781Z,17.74
2023-03-25T08:46:23.475Z,17.69
2023-03-25T08:48:51.504Z,17.70
2023-03-25T08:51:19.434Z,17.88
2023-03-25T08:53:47.611Z,17.84
2023-03-25T08:56:15.809Z,17.99
2023-03-25T08:58:43.852Z,17.97
2023-03-25T09:01:12.362Z,18.11
2023-03-25T09:03:42.451Z,18.23
2023-03-25T09:06:10.554Z,18.43
2023-03-25T09:08:38.456Z,18.43
2023-03-25T09:11:06.535Z,18.42
2023-03-25T09:13:34.373Z,18.48
2023-03-25T09:16:02.225Z,18.44
2023-03-25T09:18:32.215Z,18.61
2023-03-25T09:21:01.021Z,18.71
2023-03-25T09:23:29.110Z,18.94
2023-03-25T09:26:02.241Z,19.00
2023-03-25T09:28:30.473Z,19.17
2023-03-25T09:30:58.552Z,19.14
2023-03-25T09:33:27.841Z,19.23
2023-03-25T09:35:55.929Z,19.16
2023-03-25T09:38:23.820Z,19.32
2023-03-25T09:40:51.739Z,19.32
2023-03-25T09:44:12.453Z,19.57
2023-03-25T09:46:40.780Z,19.71
2023-03-25T09:49:18.122Z,19.77
2023-03-25T09:51:48.562Z,19.81
2023-03-25T09:54:26.147Z,20.03
2023-03-25T09:56:57.990Z,19.82
2023-03-25T09:59:49.752Z,19.83
2023-03-25T10:02:41.311Z,20.16
2023-03-25T10:05:15.732Z,20.06
2023-03-25T10:08:30.530Z,20.19
2023-03-25T10:11:07.710Z,20.37
2023-03-25T10:13:53.616Z,20.31
2023-03-25T10:16:33.652Z,20.52
2023-03-25T10:19:43.744Z,20.99
2023-03-25T10:22:26.043Z,21.07
2023-03-25T10:25:01.406Z,20.92
2023-03-25T10:27:57.749Z,20.82
2023-03-25T10:30:32.044Z,20.92
2023-03-25T10:33:05.117Z,21.03
2023-03-25T10:35:46.457Z,21.19
2023-03-25T10:38:21.010Z,21.16
2023-03-25T10:40:51.880Z,21.31
2023-03-25T10:43:31.722Z,21.66
2023-03-25T10:46:16.831Z,21.93
2023-03-25T10:48:47.434Z,21.93
2023-03-25T10:51:29.296Z,22.02
2023-03-25T10:53:58.726Z,21.98
2023-03-25T10:56:41.339Z,22.14
2023-03-25T10:59:35.269Z,22.40
2023-03-25T11:02:27.277Z,23.02
2023-03-25T11:05:02.057Z,23.38
2023-03-25T11:07:41.909Z,23.15
2023-03-25T11:10:26.441Z,22.62
2023-03-25T11:12:57.144Z,22.38
2023-03-25T11:15:38.197Z,22.20
2023-03-25T11:18:15.715Z,22.70
2023-03-25T11:20:53.651Z,22.63
2023-03-25T11:23:36.723Z,22.75
2023-03-25T11:26:23.767Z,22.69
2023-03-25T11:29:12.327Z,23.05
2023-03-25T11:31:43.020Z,23.07
2023-03-25T11:34:10.847Z,22.92
2023-03-25T11:36:47.693Z,23.19
2023-03-25T11:39:30.588Z,23.02
2023-03-25T11:41:59.272Z,23.18
2023-03-25T11:44:33.321Z,23.49
2023-03-25T11:47:07.188Z,23.37
2023-03-25T11:49:38.743Z,23.95
2023-03-25T11:52:13.411Z,24.64
2023-03-25T11:54:43.114Z,24.66
2023-03-25T11:57:23.202Z,24.88
2023-03-25T12:00:02.143Z,25.25
2023-03-25T12:02:41.328Z,24.93
2023-03-25T12:05:15.044Z,25.21
2023-03-25T12:07:51.701Z,25.36
2023-03-25T12:10:49.973Z,25.84
2023-03-25T12:13:32.152Z,25.70
2023-03-25T12:16:16.447Z,26.21
2023-03-25T12:19:20.738Z,26.04
2023-03-25T12:22:07.109Z,26.36
2023-03-25T12:24:53.583Z,26.51
2023-03-25T12:27:59.644Z,27.22
2023-03-25T12:30:42.976Z,27.13
2023-03-25T12:33:22.495Z,27.61
2023-03-25T12:36:10.780Z,27.79
2023-03-25T12:39:04.451Z,27.58
2023-03-25T12:41:41.951Z,27.74
2023-03-25T12:44:31.038Z,28.03
2023-03-25T12:47:23.723Z,27.86
2023-03-25T12:49:54.138Z,28.49
2023-03-25T12:52:49.494Z,28.12
2023-03-25T12:55:30.739Z,28.68
2023-03-25T12:58:21.575Z,28.50
2023-03-25T13:01:01.645Z,28.59
2023-03-25T13:03:48.164Z,28.77
2023-03-25T13:06:40.850Z,29.72
2023-03-25T13:09:15.656Z,29.68
2023-03-25T13:11:49.921Z,29.56
2023-03-25T13:14:33.856Z,29.52
2023-03-25T13:17:09.396Z,31.22
2023-03-25T13:19:44.515Z,29.64
2023-03-25T13:22:25.351Z,30.10
2023-03-25T13:25:01.113Z,30.92
2023-03-25T13:27:36.271Z,31.95
2023-03-25T13:30:09.439Z,32.56
2023-03-25T13:32:48.372Z,32.70
2023-03-25T13:35:37.884Z,33.37
2023-03-25T13:38:16.413Z,32.81
2023-03-25T13:41:05.947Z,31.90
2023-03-25T13:43:47.729Z,32.03
2023-03-25T13:46:41.135Z,33.54
2023-03-25T13:49:48.672Z,33.21
2023-03-25T13:52:18.548Z,32.96
2023-03-25T13:54:59.891Z,33.35
2023-03-25T13:57:57.990Z,32.32
2023-03-25T14:01:21.850Z,32.99
2023-03-25T14:04:18.783Z,33.87
2023-03-25T14:07:17.541Z,33.40
2023-03-25T14:10:03.270Z,33.66
2023-03-25T14:12:39.956Z,33.29
2023-03-25T14:15:30.376Z,32.79
2023-03-25T14:18:00.341Z,32.01
2023-03-25T14:20:41.796Z,32.58
2023-03-25T14:23:18.583Z,31.66
2023-03-25T14:25:50.470Z,30.43
2023-03-25T14:28:31.833Z,29.99
2023-03-25T14:31:14.902Z,29.45
2023-03-25T14:34:04.097Z,29.39
2023-03-25T14:36:55.912Z,29.68
2023-03-25T14:39:29.613Z,29.67
2023-03-25T14:42:11.682Z,29.24
2023-03-25T14:44:50.116Z,28.39
2023-03-25T14:47:28.195Z,28.51
2023-03-25T14:50:05.293Z,27.64
2023-03-25T14:52:44.156Z,27.65
2023-03-25T14:55:28.304Z,26.49
2023-03-25T14:58:01.377Z,26.49
2023-03-25T15:00:34.437Z,26.80
2023-03-25T15:03:18.245Z,26.70
2023-03-25T15:05:56.606Z,27.09
2023-03-25T15:08:35.715Z,26.89
2023-03-25T15:11:12.864Z,27.04
2023-03-25T15:13:46.491Z,27.00
2023-03-25T15:16:39.944Z,27.35
2023-03-25T15:19:12.100Z,27.52
2023-03-25T15:22:11.087Z,27.22
2023-03-25T15:24:41.501Z,26.03
2023-03-25T15:27:42.263Z,26.66
2023-03-25T15:31:01.432Z,26.72
2023-03-25T15:33:51.213Z,26.50
2023-03-25T15:36:45.933Z,26.28
2023-03-25T15:39:36.034Z,25.99
2023-03-25T15:42:25.451Z,26.01
2023-03-25T15:45:26.434Z,26.44
2023-03-25T15:48:16.067Z,26.65
2023-03-25T15:51:01.821Z,26.92
2023-03-25T15:53:53.194Z,26.70
2023-03-25T15:56:26.543Z,26.72
2023-03-25T15:59:03.685Z,26.21
2023-03-25T16:01:39.486Z,26.08
2023-03-25T16:04:25.014Z,26.05
2023-03-25T16:06:56.874Z,26.39
2023-03-25T16:09:28.836Z,26.26
2023-03-25T16:12:02.395Z,26.02
2023-03-25T16:14:33.046Z,26.05
2023-03-25T16:17:03.515Z,25.97
2023-03-25T16:19:40.179Z,25.81
2023-03-25T16:22:18.277Z,25.78
2023-03-25T16:24:49.046Z,25.54
2023-03-25T16:27:38.056Z,25.55
2023-03-25T16:30:22.883Z,25.27
2023-03-25T16:32:51.460Z,25.07
2023-03-25T16:35:27.792Z,24.93
2023-03-25T16:37:58.727Z,25.00
2023-03-25T16:40:41.355Z,24.89
2023-03-25T16:43:35.940Z,24.79
2023-03-25T16:46:05.845Z,24.72
2023-03-25T16:48:39.978Z,24.54
2023-03-25T16:51:23.193Z,24.41
2023-03-25T16:53:54.112Z,24.31
2023-03-25T16:56:30.453Z,24.21
2023-03-25T16:59:21.590Z,23.91
2023-03-25T17:01:59.851Z,23.85
2023-03-25T17:04:48.517Z,23.71
2023-03-25T17:07:21.204Z,23.73
2023-03-25T17:09:54.526Z,23.68
2023-03-25T17:12:24.894Z,23.62
2023-03-25T17:14:58.667Z,23.65
2023-03-25T17:17:41.844Z,23.61
2023-03-25T17:20:18.255Z,23.59
2023-03-25T17:23:00.790Z,23.30
2023-03-25T17:25:36.905Z,23.09
2023-03-25T17:28:23.054Z,23.01
2023-03-25T17:30:51.395Z,22.87
2023-03-25T17:33:20.997Z,22.82
2023-03-25T17:35:55.618Z,22.82
2023-03-25T17:38:37.128Z,22.73
2023-03-25T17:41:08.324Z,22.61
2023-03-25T17:43:41.663Z,22.62
2023-03-25T17:46:10.801Z,22.40
2023-03-25T17:48:38.828Z,22.41
2023-03-25T17:51:07.193Z,22.24
2023-03-25T17:53:35.083Z,22.12
2023-03-25T17:56:03.816Z,22.20
2023-03-25T18:01:01.783Z,22.31
2023-03-25T18:03:32.367Z,22.40
2023-03-25T18:06:01.124Z,22.31
2023-03-25T18:08:30.055Z,21.91
2023-03-25T18:10:59.068Z,22.04
2023-03-25T18:13:28.073Z,21.86
2023-03-25T18:15:56.360Z,22.00
2023-03-25T18:18:26.505Z,21.92
2023-03-25T18:21:00.412Z,21.86
2023-03-25T18:23:28.610Z,21.72
2023-03-25T18:25:58.434Z,21.60
2023-03-25T18:28:26.505Z,21.67
2023-03-25T18:30:57.203Z,21.64
2023-03-25T18:33:25.845Z,21.51
2023-03-25T18:35:54.027Z,21.41
2023-03-25T18:38:27.398Z,21.34
2023-03-25T18:40:57.209Z,21.27
2023-03-25T18:43:25.297Z,20.92
2023-03-25T18:45:53.358Z,20.93
2023-03-25T18:48:22.302Z,20.62
2023-03-25T18:50:55.638Z,20.49
2023-03-25T18:53:28.989Z,20.54
2023-03-25T18:56:02.504Z,20.32
2023-03-25T18:58:33.143Z,20.22
2023-03-25T19:01:03.010Z,20.33
2023-03-25T19:03:31.667Z,20.14
2023-03-25T19:06:00.901Z,19.89
2023-03-25T19:08:28.972Z,19.78
2023-03-25T19:11:04.609Z,19.27
2023-03-25T19:13:40.862Z,18.99
2023-03-25T19:16:09.254Z,18.88
2023-03-25T19:18:37.189Z,19.07
2023-03-25T19:21:05.795Z,19.09
2023-03-25T19:23:35.444Z,19.19
2023-03-25T19:26:04.443Z,19.06
2023-03-25T19:28:32.503Z,19.06
2023-03-25T19:31:01.693Z,18.99
2023-03-25T19:33:31.786Z,18.71
2023-03-25T19:36:02.076Z,18.21
2023-03-25T19:38:33.181Z,18.52
2023-03-25T19:41:07.091Z,18.42
2023-03-25T19:43:36.122Z,18.16
2023-03-25T19:46:05.818Z,18.27
2023-03-25T19:48:34.690Z,18.15
2023-03-25T19:51:02.906Z,18.12
2023-03-25T19:53:31.174Z,17.77
2023-03-25T19:56:04.388Z,17.66
2023-03-25T19:58:32.862Z,17.37
2023-03-25T20:01:00.732Z,17.40
2023-03-25T20:03:31.586Z,17.11
2023-03-25T20:06:01.118Z,17.06
2023-03-25T20:08:30.561Z,16.87
2023-03-25T20:10:58.620Z,16.78
2023-03-25T20:13:26.912Z,16.65
2023-03-25T20:15:55.073Z,16.46
2023-03-25T20:18:23.372Z,15.83
2023-03-25T20:20:51.777Z,15.60
2023-03-25T20:23:19.754Z,15.18
2023-03-25T20:25:47.811Z,15.00
2023-03-25T20:28:18.631Z,15.04
2023-03-25T20:30:46.843Z,14.97
2023-03-25T20:33:14.921Z,14.76
2023-03-25T20:35:44.257Z,15.05
2023-03-25T20:38:12.763Z,15.22
2023-03-25T20:40:44.597Z,15.53
2023-03-25T20:43:14.869Z,15.64
2023-03-25T20:45:43.911Z,15.54
2023-03-25T20:48:12.078Z,15.53
2023-03-25T20:50:40.768Z,15.67
2023-03-25T20:53:09.306Z,15.59
2023-03-25T20:55:37.573Z,15.57
2023-03-25T20:58:06.447Z,15.61
2023-03-25T21:00:34.896Z,15.58
2023-03-25T21:03:05.273Z,15.65
2023-03-25T21:05:33.766Z,15.85
2023-03-25T21:08:01.727Z,15.64
2023-03-25T21:10:29.698Z,15.84
2023-03-25T21:12:57.612Z,15.95
2023-03-25T21:15:25.542Z,16.03
2023-03-25T21:17:53.458Z,16.06
2023-03-25T21:20:27.248Z,16.08
2023-03-25T21:22:57.482Z,15.93
2023-03-25T21:25:34.280Z,15.93
2023-03-25T21:28:04.535Z,15.83
2023-03-25T21:30:32.728Z,15.79
2023-03-25T21:33:00.604Z,15.91
2023-03-25T21:35:28.718Z,15.87
2023-03-25T21:37:56.749Z,15.70
2023-03-25T21:40:24.997Z,15.84
2023-03-25T21:42:53.101Z,15.91
2023-03-25T21:45:21.021Z,15.82
2023-03-25T21:47:53.577Z,15.83
2023-03-25T21:50:22.012Z,15.88
2023-03-25T21:52:49.878Z,15.77
2023-03-25T21:55:17.904Z,15.68
2023-03-25T21:57:48.059Z,15.71
2023-03-25T22:00:18.087Z,15.54
2023-03-25T22:02:47.376Z,15.62
2023-03-25T22:05:17.449Z,15.46
2023-03-25T22:07:45.626Z,15.62
2023-03-25T22:10:13.641Z,15.52
2023-03-25T22:12:41.783Z,15.38
2023-03-25T22:15:10.514Z,15.45
2023-03-25T22:17:38.432Z,15.48
2023-03-25T22:20:07.136Z,15.50
2023-03-25T22:22:35.015Z,15.47
2023-03-25T22:25:04.256Z,15.49
2023-03-25T22:27:32.220Z,15.52
2023-03-25T22:30:01.747Z,15.52
2023-03-25T22:32:29.860Z,15.54
2023-03-25T22:34:58.431Z,15.53
2023-03-25T22:37:26.565Z,15.56
2023-03-25T22:39:54.510Z,15.53
2023-03-25T22:42:22.411Z,15.46
2023-03-25T22:44:50.506Z,15.45
2023-03-25T22:47:18.403Z,15.29
2023-03-25T22:49:46.322Z,15.24
2023-03-25T22:52:14.255Z,15.15
2023-03-25T22:54:42.178Z,15.14
2023-03-25T22:57:10.112Z,15.11
2023-03-25T22:59:39.368Z,15.08
2023-03-25T23:02:08.014Z,15.04
2023-03-25T23:04:35.864Z,15.02
2023-03-25T23:07:08.336Z,15.02
2023-03-25T23:09:44.123Z,15.14
2023-03-25T23:12:14.933Z,15.26
2023-03-25T23:14:49.822Z,15.18
2023-03-25T23:17:18.215Z,15.18
2023-03-25T23:19:47.557Z,15.16
2023-03-25T23:22:17.665Z,15.18
2023-03-25T23:24:46.157Z,15.05
2023-03-25T23:27:14.575Z,15.03
2023-03-25T23:29:42.642Z,15.12
2023-03-25T23:32:11.500Z,15.05
2023-03-25T23:34:40.466Z,15.07
2023-03-25T23:37:09.458Z,15.05
2023-03-25T23:39:37.649Z,14.94
2023-03-25T23:42:05.609Z,14.89
2023-03-25T23:44:34.543Z,14.80
2023-03-25T23:47:02.482Z,14.78
2023-03-25T23:49:33.448Z,14.74
2023-03-25T23:52:01.575Z,14.77
2023-03-25T23:54:29.435Z,14.66
2023-03-25T23:56:58.032Z,14.74
2023-03-25T23:59:26.044Z,14.69
